Time;durP1;ratioP1;P1;durP2;ratioP2;P2;SDS_P1;SDS_P2;PMS_P1;PMS_P2;Temp;Humidity;BMP_temperature;BMP_pressure;BME280_temperature;BME280_humidity;BME280_pressure;Samples;Min_cycle;Max_cycle;Signal;HPM_P1;HPM_P2
2022/09/29 00:02:18;;;;;;;1.60;1.10;;;;;;;7.28;100.00;98715.97;5038323;28;20462;-53
2022/09/29 00:04:44;;;;;;;1.90;0.90;;;;;;;7.56;100.00;98713.03;5042577;28;20506;-55
2022/09/29 00:07:11;;;;;;;2.00;0.73;;;;;;;7.54;100.00;98710.47;5022691;28;20454;-53
2022/09/29 00:09:37;;;;;;;1.90;1.20;;;;;;;7.41;100.00;98711.88;5035804;28;21006;-54
2022/09/29 00:12:04;;;;;;;5.63;0.70;;;;;;;7.54;100.00;98712.22;5038801;28;20451;-53
2022/09/29 00:14:30;;;;;;;1.70;1.27;;;;;;;7.68;100.00;98712.53;5042629;28;20464;-54
2022/09/29 00:16:56;;;;;;;1.47;0.87;;;;;;;7.67;100.00;98716.06;5040085;28;20450;-53
2022/09/29 00:19:24;;;;;;;2.03;1.00;;;;;;;7.71;100.00;98699.16;5036002;28;20459;-53
2022/09/29 00:21:50;;;;;;;1.63;1.27;;;;;;;7.78;100.00;98707.69;5037786;28;20505;-53
2022/09/29 00:24:17;;;;;;;2.20;0.73;;;;;;;7.86;100.00;98705.59;5042558;28;20499;-53
2022/09/29 00:26:45;;;;;;;3.93;0.80;;;;;;;7.95;100.00;98707.84;5040225;28;20818;-53
2022/09/29 00:29:11;;;;;;;0.80;0.70;;;;;;;7.92;100.00;98707.94;5035613;28;20508;-53
2022/09/29 00:31:38;;;;;;;1.17;1.17;;;;;;;7.93;100.00;98707.88;5037650;28;20448;-53
2022/09/29 00:34:05;;;;;;;2.00;1.67;;;;;;;8.06;100.00;98710.00;5042713;28;20468;-53
2022/09/29 00:36:31;;;;;;;0.60;0.60;;;;;;;7.98;100.00;98711.19;5037082;28;20462;-55
2022/09/29 00:38:58;;;;;;;1.03;1.03;;;;;;;7.88;100.00;98711.66;5042298;28;20459;-53
2022/09/29 00:41:28;;;;;;;1.27;1.23;;;;;;;7.93;100.00;98714.97;5040678;28;20512;-61
2022/09/29 00:43:59;;;;;;;1.80;1.03;;;;;;;7.97;100.00;98721.84;5034854;28;20498;-53
2022/09/29 00:46:43;;;;;;;1.97;1.43;;;;;;;8.06;100.00;98717.94;5036132;28;20452;-53
2022/09/29 00:49:37;;;;;;;0.90;0.73;;;;;;;8.06;100.00;98716.13;5025968;28;20459;-54
2022/09/29 00:52:05;;;;;;;1.77;0.70;;;;;;;8.01;100.00;98716.34;5022961;28;21020;-54
2022/09/29 00:54:37;;;;;;;1.93;1.83;;;;;;;8.10;100.00;98708.94;5034555;28;20479;-55
2022/09/29 00:57:07;;;;;;;1.27;1.17;;;;;;;8.02;100.00;98709.28;5048197;28;20935;-54
2022/09/29 00:59:49;;;;;;;0.93;0.70;;;;;;;8.08;100.00;98710.78;5035403;28;20525;-53
2022/09/29 01:02:18;;;;;;;2.40;1.43;;;;;;;8.04;100.00;98704.78;5038164;28;20455;-53
2022/09/29 01:04:47;;;;;;;1.47;1.37;;;;;;;8.03;100.00;98701.25;5041381;28;20491;-53
2022/09/29 01:07:14;;;;;;;0.70;0.63;;;;;;;7.97;100.00;98698.91;5040303;28;20528;-54
2022/09/29 01:09:42;;;;;;;1.00;1.00;;;;;;;8.03;100.00;98701.25;5034955;28;20884;-54
2022/09/29 01:12:08;;;;;;;2.30;1.23;;;;;;;7.96;100.00;98702.47;5036787;28;20860;-55
2022/09/29 01:14:37;;;;;;;1.00;0.80;;;;;;;7.92;100.00;98695.56;5041769;28;21041;-54
2022/09/29 01:17:04;;;;;;;1.17;1.17;;;;;;;7.88;100.00;98694.00;5040922;28;20504;-54
2022/09/29 01:19:55;;;;;;;0.50;0.50;;;;;;;7.79;100.00;98697.03;5034742;28;20466;-54
2022/09/29 01:22:43;;;;;;;0.60;0.60;;;;;;;7.75;100.00;98689.31;5035107;28;21017;-54
2022/09/29 01:25:19;;;;;;;1.23;1.13;;;;;;;7.63;100.00;98691.53;5036084;28;20491;-53
2022/09/29 01:28:04;;;;;;;0.50;0.50;;;;;;;7.57;100.00;98693.59;5022732;28;20484;-53
2022/09/29 01:30:49;;;;;;;0.80;0.77;;;;;;;7.47;100.00;98689.63;5034941;28;20543;-52
2022/09/29 01:33:37;;;;;;;1.30;1.20;;;;;;;7.43;100.00;98683.59;5035954;28;20455;-53
2022/09/29 01:36:28;;;;;;;0.83;0.57;;;;;;;7.07;100.00;98689.47;5031506;28;20944;-52
2022/09/29 01:39:09;;;;;;;0.50;0.40;;;;;;;7.18;100.00;98689.03;5041354;28;20452;-51
2022/09/29 01:41:39;;;;;;;0.73;0.50;;;;;;;7.20;100.00;98691.63;5041611;28;20497;-52
2022/09/29 01:44:21;;;;;;;0.60;0.40;;;;;;;7.29;100.00;98696.53;5036230;28;21053;-53
2022/09/29 01:46:54;;;;;;;6.90;0.90;;;;;;;7.23;100.00;98700.28;5034581;28;20508;-53
2022/09/29 01:49:22;;;;;;;0.60;0.57;;;;;;;7.04;100.00;98696.66;5037764;28;20448;-53
2022/09/29 01:51:54;;;;;;;0.63;0.60;;;;;;;6.85;100.00;98701.78;5046743;28;21002;-53
2022/09/29 01:55:13;;;;;;;0.60;0.60;;;;;;;6.88;100.00;98709.63;5035339;28;20487;-52
2022/09/29 01:57:53;;;;;;;0.70;0.70;;;;;;;6.60;100.00;98707.19;5015758;28;20877;-54
2022/09/29 02:00:22;;;;;;;1.13;1.13;;;;;;;6.48;100.00;98699.72;5043013;28;20451;-53
2022/09/29 02:03:13;;;;;;;2.40;2.20;;;;;;;6.57;100.00;98709.06;5044824;28;20478;-52
2022/09/29 02:05:45;;;;;;;1.27;0.67;;;;;;;6.52;100.00;98710.09;5044581;28;20502;-52
2022/09/29 02:08:18;;;;;;;0.87;0.67;;;;;;;6.34;100.00;98707.28;5025858;28;20459;-53
2022/09/29 02:11:07;;;;;;;1.23;1.13;;;;;;;6.24;100.00;98706.75;5038002;28;20451;-53
2022/09/29 02:13:39;;;;;;;17.53;1.37;;;;;;;6.14;100.00;98714.13;5040429;28;20517;-54
2022/09/29 02:16:10;;;;;;;0.60;0.50;;;;;;;6.30;100.00;98710.94;5045106;28;20448;-54
2022/09/29 02:18:47;;;;;;;0.73;0.60;;;;;;;6.30;100.00;98709.16;5043756;28;20455;-52
2022/09/29 02:21:14;;;;;;;0.80;0.30;;;;;;;6.23;100.00;98716.47;5043997;28;20478;-53
2022/09/29 02:23:40;;;;;;;1.73;0.73;;;;;;;6.29;100.00;98722.41;5044555;28;20520;-52
2022/09/29 02:26:09;;;;;;;1.90;1.80;;;;;;;6.24;100.00;98714.69;5038267;28;20517;-54
2022/09/29 02:28:36;;;;;;;0.63;0.63;;;;;;;6.19;100.00;98719.28;5037729;28;20452;-52
2022/09/29 02:31:03;;;;;;;4.97;1.30;;;;;;;6.21;100.00;98715.66;5043743;28;20456;-54
2022/09/29 02:33:29;;;;;;;0.50;0.40;;;;;;;6.15;100.00;98723.78;5044355;28;20974;-53
2022/09/29 02:36:05;;;;;;;1.20;1.13;;;;;;;6.08;100.00;98722.28;5038208;28;20456;-53
2022/09/29 02:38:59;;;;;;;2.40;0.70;;;;;;;6.10;100.00;98714.31;5044099;28;20454;-55
2022/09/29 02:41:53;;;;;;;0.50;0.40;;;;;;;6.06;100.00;98716.22;5044195;28;20500;-53
2022/09/29 02:44:23;;;;;;;0.97;0.70;;;;;;;5.90;100.00;98726.44;5032138;28;20495;-55
2022/09/29 02:47:08;;;;;;;1.00;1.00;;;;;;;5.88;100.00;98728.22;5037386;28;20450;-53
2022/09/29 02:49:46;;;;;;;0.50;0.30;;;;;;;5.78;100.00;98725.97;5037205;28;20458;-52
2022/09/29 02:52:38;;;;;;;1.20;1.20;;;;;;;5.71;100.00;98727.09;5027831;28;20446;-53
2022/09/29 02:55:08;;;;;;;0.80;0.80;;;;;;;5.79;100.00;98728.56;5037667;28;20529;-56
2022/09/29 02:57:58;;;;;;;0.57;0.57;;;;;;;5.86;100.00;98730.06;5050443;28;20513;-56
2022/09/29 03:00:26;;;;;;;0.97;0.97;;;;;;;5.75;100.00;98726.91;5028254;28;20914;-57
2022/09/29 03:02:52;;;;;;;0.57;0.57;;;;;;;5.72;100.00;98726.16;5036988;28;20456;-56
2022/09/29 03:05:21;;;;;;;0.60;0.40;;;;;;;5.83;100.00;98727.53;5041594;28;20549;-56
2022/09/29 03:07:48;;;;;;;0.70;0.70;;;;;;;5.87;100.00;98723.84;5042727;28;20960;-56
2022/09/29 03:10:16;;;;;;;1.13;0.73;;;;;;;6.01;100.00;98719.91;5039896;28;20512;-57
2022/09/29 03:12:43;;;;;;;0.40;0.30;;;;;;;5.82;100.00;98722.31;5036802;28;20450;-57
2022/09/29 03:15:11;;;;;;;0.73;0.73;;;;;;;5.76;100.00;98719.91;5040376;28;20475;-56
2022/09/29 03:17:39;;;;;;;4.00;1.43;;;;;;;5.72;100.00;98721.75;5025954;28;20878;-56
2022/09/29 03:20:07;;;;;;;0.40;0.37;;;;;;;5.68;100.00;98722.78;5040507;28;20462;-57
2022/09/29 03:22:33;;;;;;;1.17;0.70;;;;;;;5.62;100.00;98728.28;5036771;28;20927;-56
2022/09/29 03:25:00;;;;;;;7.60;0.70;;;;;;;5.48;100.00;98722.56;5039464;28;20499;-56
2022/09/29 03:27:26;;;;;;;0.70;0.70;;;;;;;5.38;100.00;98729.09;5043531;28;20809;-55
2022/09/29 03:29:52;;;;;;;0.40;0.40;;;;;;;5.39;100.00;98730.81;5041300;28;20462;-56
2022/09/29 03:32:19;;;;;;;0.80;0.70;;;;;;;5.50;100.00;98726.06;5036700;28;20930;-57
2022/09/29 03:34:45;;;;;;;0.57;0.43;;;;;;;5.63;100.00;98722.94;5044123;28;20474;-56
2022/09/29 03:37:12;;;;;;;0.77;0.30;;;;;;;5.58;100.00;98722.22;5036435;28;20459;-55
2022/09/29 03:39:38;;;;;;;0.60;0.37;;;;;;;5.51;100.00;98718.09;5039264;28;20447;-56
2022/09/29 03:42:05;;;;;;;0.50;0.40;;;;;;;5.49;100.00;98719.91;5043309;28;20451;-56
2022/09/29 03:44:31;;;;;;;0.50;0.40;;;;;;;5.50;100.00;98716.38;5041189;28;20529;-55
2022/09/29 03:46:57;;;;;;;9.17;1.07;;;;;;;5.45;100.00;98717.41;5036118;28;20974;-56
2022/09/29 03:49:24;;;;;;;0.40;0.40;;;;;;;5.44;100.00;98716.56;5037916;28;20452;-56
2022/09/29 03:51:51;;;;;;;0.80;0.60;;;;;;;5.46;100.00;98720.00;5048103;28;20436;-56
2022/09/29 03:54:17;;;;;;;0.57;0.57;;;;;;;5.60;100.00;98723.03;5037173;28;21019;-56
2022/09/29 03:56:44;;;;;;;0.83;0.83;;;;;;;5.43;100.00;98721.88;5047480;28;20520;-56
2022/09/29 03:59:11;;;;;;;4.63;0.70;;;;;;;5.68;100.00;98722.78;5037587;28;20452;-56
2022/09/29 04:01:37;;;;;;;0.50;0.40;;;;;;;5.76;100.00;98725.16;5042971;28;20456;-56
2022/09/29 04:04:05;;;;;;;0.97;0.97;;;;;;;5.67;100.00;98738.66;5041318;28;21018;-55
2022/09/29 04:06:32;;;;;;;0.50;0.50;;;;;;;5.54;100.00;98738.19;5035882;28;20504;-55
2022/09/29 04:08:59;;;;;;;1.80;1.70;;;;;;;5.64;100.00;98737.84;5036747;28;20474;-55
2022/09/29 04:11:26;;;;;;;0.40;0.30;;;;;;;5.76;100.00;98749.75;5042366;28;20975;-55
2022/09/29 04:13:53;;;;;;;0.40;0.30;;;;;;;5.67;100.00;98746.56;5041865;28;20532;-56
2022/09/29 04:16:19;;;;;;;0.40;0.40;;;;;;;5.61;100.00;98745.84;5035482;28;20509;-57
2022/09/29 04:18:46;;;;;;;4.00;3.30;;;;;;;5.55;100.00;98758.38;5036031;28;20963;-56
2022/09/29 04:21:12;;;;;;;3.83;3.53;;;;;;;5.55;100.00;98761.88;5042168;28;20459;-56
2022/09/29 04:23:38;;;;;;;4.67;4.27;;;;;;;5.54;100.00;98769.81;5042016;28;20475;-55
2022/09/29 04:26:05;;;;;;;4.20;3.03;;;;;;;5.45;100.00;98770.13;5035577;28;20490;-56
2022/09/29 04:28:33;;;;;;;10.47;1.37;;;;;;;5.37;100.00;98765.13;5035861;28;21226;-56
2022/09/29 04:31:00;;;;;;;0.63;0.63;;;;;;;5.32;100.00;98759.97;5016174;28;20518;-56
2022/09/29 04:33:28;;;;;;;0.50;0.40;;;;;;;5.19;100.00;98757.78;5041932;28;20450;-55
2022/09/29 04:35:56;;;;;;;3.77;3.33;;;;;;;5.15;100.00;98751.75;5030927;28;20941;-56
2022/09/29 04:38:23;;;;;;;0.60;0.60;;;;;;;5.38;100.00;98753.66;5042229;28;20454;-54
2022/09/29 04:40:49;;;;;;;1.13;1.13;;;;;;;5.33;100.00;98755.56;5035399;28;20454;-56
2022/09/29 04:43:16;;;;;;;5.43;1.00;;;;;;;5.43;100.00;98751.72;5035129;28;20824;-55
2022/09/29 04:45:42;;;;;;;0.53;0.53;;;;;;;5.55;100.00;98758.38;5041642;28;20618;-56
2022/09/29 04:48:09;;;;;;;0.57;0.40;;;;;;;5.45;100.00;98755.16;5041913;28;20524;-55
2022/09/29 04:50:35;;;;;;;0.63;0.63;;;;;;;5.48;100.00;98757.72;5037145;28;20505;-56
2022/09/29 04:53:01;;;;;;;0.70;0.70;;;;;;;5.74;100.00;98756.84;5046655;28;20873;-55
2022/09/29 04:55:28;;;;;;;0.77;0.50;;;;;;;5.75;100.00;98758.56;5036770;28;20483;-55
2022/09/29 04:57:54;;;;;;;1.00;0.47;;;;;;;5.73;100.00;98757.75;5028649;28;20894;-55
2022/09/29 05:00:21;;;;;;;1.57;1.30;;;;;;;5.67;100.00;98754.47;5018982;28;20524;-55
2022/09/29 05:02:47;;;;;;;2.10;0.70;;;;;;;5.65;100.00;98754.53;5035375;28;20521;-55
2022/09/29 05:05:15;;;;;;;23.17;0.93;;;;;;;5.65;100.00;98758.03;5039804;28;20527;-55
2022/09/29 05:07:43;;;;;;;0.80;0.50;;;;;;;5.67;100.00;98767.66;5041851;28;20450;-56
2022/09/29 05:10:09;;;;;;;1.37;0.60;;;;;;;5.97;100.00;98771.06;5037239;28;20451;-56
2022/09/29 05:12:36;;;;;;;0.50;0.40;;;;;;;5.84;100.00;98770.56;5035123;28;20467;-54
2022/09/29 05:15:03;;;;;;;2.77;0.83;;;;;;;5.78;100.00;98769.03;5039201;28;20891;-56
2022/09/29 05:17:30;;;;;;;0.43;0.40;;;;;;;5.83;100.00;98776.75;5041847;28;20451;-56
2022/09/29 05:19:56;;;;;;;0.60;0.60;;;;;;;5.77;100.00;98769.06;5038132;28;20481;-54
2022/09/29 05:22:24;;;;;;;0.80;0.50;;;;;;;5.72;100.00;98784.16;5035150;28;20458;-56
2022/09/29 05:24:52;;;;;;;21.03;1.40;;;;;;;5.61;100.00;98776.59;5037873;28;20475;-55
2022/09/29 05:27:19;;;;;;;0.50;0.40;;;;;;;5.63;100.00;98783.56;5041550;28;20762;-55
2022/09/29 05:29:45;;;;;;;1.10;0.73;;;;;;;5.54;100.00;98778.59;5038946;28;20542;-55
2022/09/29 05:32:12;;;;;;;16.97;1.60;;;;;;;5.43;100.00;98796.50;5036982;28;20454;-56
2022/09/29 05:34:40;;;;;;;0.40;0.33;;;;;;;5.53;100.00;98795.31;5028313;28;20893;-56
2022/09/29 05:37:06;;;;;;;0.90;0.63;;;;;;;5.48;100.00;98794.63;5038532;28;20943;-56
2022/09/29 05:39:33;;;;;;;29.57;2.20;;;;;;;5.49;100.00;98793.69;5041286;28;20513;-55
2022/09/29 05:42:01;;;;;;;0.50;0.40;;;;;;;5.34;100.00;98796.78;5045207;28;20501;-56
2022/09/29 05:44:27;;;;;;;0.40;0.20;;;;;;;5.43;100.00;98804.41;5043317;28;20474;-54
2022/09/29 05:46:54;;;;;;;0.90;0.90;;;;;;;5.48;100.00;98805.16;5038490;28;20552;-54
2022/09/29 05:49:20;;;;;;;2.10;2.00;;;;;;;5.50;100.00;98813.88;5040788;28;20938;-55
2022/09/29 05:51:47;;;;;;;2.03;1.83;;;;;;;5.67;100.00;98815.94;5050138;28;20451;-55
2022/09/29 05:54:13;;;;;;;4.10;0.63;;;;;;;5.47;100.00;98815.72;5039878;28;20502;-55
2022/09/29 05:56:39;;;;;;;3.33;3.13;;;;;;;5.63;100.00;98811.72;5050047;28;20504;-56
2022/09/29 05:59:10;;;;;;;0.70;0.67;;;;;;;5.78;100.00;98816.47;5039222;28;20447;-55
2022/09/29 06:01:37;;;;;;;7.30;1.27;;;;;;;5.94;100.00;98811.56;5045167;28;21024;-57
2022/09/29 06:04:04;;;;;;;1.13;1.13;;;;;;;5.84;100.00;98808.34;5044370;28;20895;-55
2022/09/29 06:06:30;;;;;;;11.03;2.90;;;;;;;6.01;100.00;98814.84;5038259;28;21046;-53
2022/09/29 06:08:58;;;;;;;1.87;1.77;;;;;;;6.14;100.00;98813.53;5038774;28;20501;-53
2022/09/29 06:11:27;;;;;;;2.90;0.80;;;;;;;6.25;100.00;98811.38;5044920;28;20452;-55
2022/09/29 06:13:54;;;;;;;4.73;1.20;;;;;;;6.20;100.00;98802.78;5045020;28;20478;-53
2022/09/29 06:16:26;;;;;;;0.90;0.90;;;;;;;6.32;100.00;98812.03;5025419;28;20943;-58
2022/09/29 06:18:53;;;;;;;10.80;1.30;;;;;;;6.08;100.00;98804.06;5038335;28;20468;-55
2022/09/29 06:21:22;;;;;;;1.63;1.53;;;;;;;6.21;100.00;98804.50;5043408;28;20482;-54
2022/09/29 06:23:50;;;;;;;1.53;1.43;;;;;;;6.24;100.00;98804.38;5045744;28;20906;-56
2022/09/29 06:26:18;;;;;;;0.93;0.80;;;;;;;6.24;100.00;98807.88;5040101;28;21192;-55
2022/09/29 06:28:49;;;;;;;0.73;0.73;;;;;;;6.40;100.00;98810.84;5021244;28;20447;-55
2022/09/29 06:31:19;;;;;;;3.17;0.70;;;;;;;6.41;100.00;98801.13;5042083;28;20455;-56
2022/09/29 06:33:46;;;;;;;2.67;0.97;;;;;;;6.47;100.00;98812.34;5044703;28;20996;-56
2022/09/29 06:39:07;;;;;;;1.30;1.20;;;;;;;6.87;100.00;98818.81;5038886;28;20458;-56
2022/09/29 06:41:34;;;;;;;0.77;0.70;;;;;;;6.92;100.00;98816.00;5037343;28;20483;-56
2022/09/29 06:44:01;;;;;;;2.77;2.57;;;;;;;6.92;100.00;98819.50;5042806;28;20983;-56
2022/09/29 06:46:27;;;;;;;2.17;1.43;;;;;;;7.06;100.00;98824.25;5044105;28;20486;-56
2022/09/29 06:48:54;;;;;;;2.03;1.93;;;;;;;6.92;100.00;98824.78;5021362;28;20485;-57
2022/09/29 06:51:22;;;;;;;1.30;1.23;;;;;;;7.00;100.00;98827.16;5032959;28;20509;-55
2022/09/29 06:53:54;;;;;;;2.27;1.50;;;;;;;7.06;100.00;98825.13;5041868;28;20479;-56
2022/09/29 06:56:33;;;;;;;1.07;0.97;;;;;;;7.22;100.00;98830.69;5047516;28;20447;-56
2022/09/29 06:59:00;;;;;;;4.57;1.33;;;;;;;7.36;100.00;98831.00;5039693;28;20466;-57
2022/09/29 07:01:26;;;;;;;0.60;0.60;;;;;;;7.38;100.00;98823.88;5043839;28;20482;-57
2022/09/29 07:03:53;;;;;;;0.87;0.50;;;;;;;7.35;100.00;98828.41;5041176;28;20837;-57
2022/09/29 07:06:19;;;;;;;2.70;2.50;;;;;;;7.73;100.00;98822.47;5036893;28;21023;-57
2022/09/29 07:08:46;;;;;;;1.63;1.53;;;;;;;8.07;100.00;98826.34;5039702;28;20461;-56
2022/09/29 07:11:13;;;;;;;0.80;0.80;;;;;;;8.32;100.00;98823.53;5043394;28;20529;-56
2022/09/29 07:13:40;;;;;;;0.70;0.60;;;;;;;8.16;100.00;98825.13;5041585;28;20470;-56
2022/09/29 07:16:11;;;;;;;3.60;1.23;;;;;;;8.17;100.00;98829.47;5037117;28;20605;-57
2022/09/29 07:18:39;;;;;;;1.47;1.37;;;;;;;8.40;100.00;98826.75;5037925;28;20480;-57
2022/09/29 07:21:10;;;;;;;2.40;1.50;;;;;;;9.05;100.00;98822.09;5044011;28;20857;-57
2022/09/29 07:23:37;;;;;;;9.10;1.10;;;;;;;8.70;100.00;98827.19;5043286;28;20528;-56
2022/09/29 07:26:05;;;;;;;3.00;1.63;;;;;;;8.70;100.00;98826.31;5036522;28;20494;-56
2022/09/29 07:28:33;;;;;;;1.30;0.90;;;;;;;8.45;100.00;98835.34;5036500;28;20513;-57
2022/09/29 07:31:08;;;;;;;6.10;1.10;;;;;;;8.58;100.00;98828.59;5042863;28;20467;-56
2022/09/29 07:33:44;;;;;;;1.67;1.00;;;;;;;8.52;100.00;98831.50;5043284;28;20817;-57
2022/09/29 07:36:12;;;;;;;1.00;0.97;;;;;;;8.38;100.00;98844.50;5036628;28;20454;-56
2022/09/29 07:38:39;;;;;;;1.90;1.80;;;;;;;8.40;100.00;98849.72;5043316;28;20451;-56
2022/09/29 07:41:10;;;;;;;1.30;1.20;;;;;;;8.42;100.00;98848.72;5040379;28;20769;-57
2022/09/29 07:43:37;;;;;;;1.80;1.70;;;;;;;8.86;100.00;98845.91;5036396;28;20467;-57
2022/09/29 07:46:04;;;;;;;1.97;1.83;;;;;;;9.10;100.00;98849.25;5039073;28;20499;-57
2022/09/29 07:48:32;;;;;;;7.20;2.27;;;;;;;8.82;100.00;98846.97;5042894;28;20452;-56
2022/09/29 07:51:16;;;;;;;4.33;1.90;;;;;;;9.09;100.00;98853.69;5041041;28;20446;-57
2022/09/29 07:53:42;;;;;;;1.00;1.00;;;;;;;8.96;100.00;98857.81;5023711;28;20995;-57
2022/09/29 07:56:16;;;;;;;6.70;1.67;;;;;;;9.03;100.00;98856.59;5035298;28;20451;-57
2022/09/29 07:58:43;;;;;;;1.70;1.60;;;;;;;9.04;100.00;98858.31;5038058;28;20497;-57
2022/09/29 08:01:12;;;;;;;0.80;0.80;;;;;;;9.33;100.00;98858.78;5036179;28;20447;-57
2022/09/29 08:03:41;;;;;;;3.57;2.00;;;;;;;9.43;100.00;98860.06;5040445;28;20555;-57
2022/09/29 08:06:08;;;;;;;22.53;1.60;;;;;;;9.17;100.00;98867.44;5031862;28;21079;-57
2022/09/29 08:08:39;;;;;;;2.37;2.17;;;;;;;9.32;100.00;98871.19;5040372;28;20490;-57
2022/09/29 08:11:11;;;;;;;2.80;1.90;;;;;;;9.05;100.00;98867.16;5042532;28;20447;-57
2022/09/29 08:13:53;;;;;;;1.53;1.43;;;;;;;9.78;100.00;98869.88;5042225;28;20478;-57
2022/09/29 08:16:20;;;;;;;2.67;2.47;;;;;;;9.10;100.00;98866.00;5035552;28;20951;-57
2022/09/29 08:18:46;;;;;;;22.70;2.43;;;;;;;9.12;100.00;98866.78;5036393;28;20984;-57
2022/09/29 08:21:14;;;;;;;1.53;1.43;;;;;;;9.56;100.00;98863.84;5042248;28;20959;-57
2022/09/29 08:23:42;;;;;;;1.30;1.20;;;;;;;9.49;100.00;98865.09;5042419;28;20474;-56
2022/09/29 08:26:13;;;;;;;1.83;1.70;;;;;;;9.68;100.00;98871.22;5042230;28;20492;-57
2022/09/29 08:28:40;;;;;;;1.43;1.30;;;;;;;9.77;100.00;98869.94;5042279;28;20450;-56
2022/09/29 08:31:21;;;;;;;2.97;1.90;;;;;;;9.87;100.00;98873.88;5019231;28;20454;-56
2022/09/29 08:33:50;;;;;;;1.60;1.50;;;;;;;9.89;100.00;98873.81;5035511;28;20502;-56
2022/09/29 08:36:18;;;;;;;4.00;2.20;;;;;;;10.17;100.00;98870.66;5039101;28;20503;-57
2022/09/29 08:38:46;;;;;;;5.00;2.53;;;;;;;9.90;100.00;98875.53;5042116;28;20812;-55
2022/09/29 08:41:34;;;;;;;1.37;1.27;;;;;;;10.08;100.00;98890.53;5039281;28;20995;-57
2022/09/29 08:44:17;;;;;;;2.20;2.03;;;;;;;10.21;100.00;98880.19;5005378;28;20474;-56
2022/09/29 08:47:11;;;;;;;41.73;2.30;;;;;;;10.39;100.00;98881.94;5035292;28;20490;-55
2022/09/29 08:49:51;;;;;;;4.67;1.77;;;;;;;10.12;100.00;98884.13;5036095;28;20448;-55
2022/09/29 08:52:30;;;;;;;1.63;1.53;;;;;;;10.52;100.00;98882.16;5049026;28;20519;-56
2022/09/29 08:55:24;;;;;;;2.10;2.00;;;;;;;10.36;100.00;98893.56;5035494;28;20494;-53
2022/09/29 08:57:58;;;;;;;2.60;2.47;;;;;;;10.52;100.00;98892.78;5046818;28;20931;-53
2022/09/29 09:00:41;;;;;;;3.40;1.73;;;;;;;10.52;100.00;98887.47;5019750;28;20462;-53
2022/09/29 09:03:20;;;;;;;1.00;1.00;;;;;;;11.20;100.00;98896.31;5035291;28;20454;-53
2022/09/29 09:06:17;;;;;;;1.30;1.20;;;;;;;10.71;100.00;98882.97;5037557;28;20447;-53
2022/09/29 09:09:09;;;;;;;1.87;1.77;;;;;;;10.72;100.00;98886.47;5034353;28;20490;-53
2022/09/29 09:12:04;;;;;;;3.13;1.37;;;;;;;11.22;100.00;98894.44;5045500;28;20506;-53
2022/09/29 09:15:03;;;;;;;2.30;2.20;;;;;;;11.39;100.00;98890.88;4979877;28;20470;-54
2022/09/29 09:17:51;;;;;;;3.20;2.03;;;;;;;11.30;100.00;98896.69;5039135;28;20448;-55
2022/09/29 09:20:31;;;;;;;1.83;1.73;;;;;;;11.56;100.00;98904.97;5040347;28;20451;-53
2022/09/29 09:22:59;;;;;;;2.87;2.67;;;;;;;12.05;100.00;98902.25;5028018;28;20457;-53
2022/09/29 09:25:34;;;;;;;2.07;1.97;;;;;;;11.64;97.78;98901.00;5038898;28;20471;-53
2022/09/29 09:28:15;;;;;;;1.60;1.50;;;;;;;12.11;97.17;98901.06;5025548;28;20490;-53
2022/09/29 09:30:48;;;;;;;2.77;2.67;;;;;;;12.23;96.73;98904.81;5045678;28;20451;-52
2022/09/29 09:33:22;;;;;;;2.10;2.00;;;;;;;12.31;96.27;98900.75;5032187;28;20467;-53
2022/09/29 09:36:11;;;;;;;3.87;1.60;;;;;;;12.19;96.53;98892.59;5034524;28;20462;-53
2022/09/29 09:38:54;;;;;;;2.00;1.90;;;;;;;11.75;96.45;98901.28;5028317;28;20485;-53
2022/09/29 09:41:39;;;;;;;2.13;1.93;;;;;;;12.46;95.82;98893.66;5026262;28;20500;-53
2022/09/29 09:44:32;;;;;;;1.60;1.50;;;;;;;12.48;95.17;98896.28;5029017;28;20474;-55
2022/09/29 09:47:07;;;;;;;1.93;1.80;;;;;;;12.62;96.20;98899.84;5038486;28;20600;-55
2022/09/29 09:49:39;;;;;;;1.80;1.70;;;;;;;12.90;94.63;98899.03;5039114;28;20865;-55
2022/09/29 09:52:28;;;;;;;3.70;1.10;;;;;;;12.51;95.77;98891.59;5026716;28;20496;-55
2022/09/29 09:54:58;;;;;;;1.20;1.10;;;;;;;12.79;94.21;98896.16;5020649;28;20543;-55
2022/09/29 09:57:47;;;;;;;1.60;1.50;;;;;;;13.16;94.33;98902.78;5051975;28;20500;-55
2022/09/29 10:00:20;;;;;;;4.73;1.47;;;;;;;12.95;93.68;98902.28;5026457;28;20443;-55
2022/09/29 10:02:53;;;;;;;23.23;2.70;;;;;;;12.55;95.47;98906.47;5038430;28;20474;-55
2022/09/29 10:05:41;;;;;;;3.90;2.43;;;;;;;12.73;94.97;98908.03;5024590;28;20487;-55
2022/09/29 10:08:19;;;;;;;1.10;1.10;;;;;;;13.08;94.34;98901.53;5044873;28;20498;-55
2022/09/29 10:10:45;;;;;;;2.20;1.50;;;;;;;13.00;93.80;98896.66;5044780;28;21005;-55
2022/09/29 10:13:26;;;;;;;2.47;2.27;;;;;;;12.83;95.86;98897.69;5040621;28;20450;-56
2022/09/29 10:16:07;;;;;;;2.80;1.63;;;;;;;13.18;95.23;98897.34;5038128;28;20460;-55
2022/09/29 10:18:39;;;;;;;1.50;1.40;;;;;;;13.40;93.95;98910.25;5039683;28;20933;-56
2022/09/29 10:21:30;;;;;;;1.97;1.87;;;;;;;13.38;92.51;98907.66;5044787;28;20952;-56
2022/09/29 10:24:01;;;;;;;2.70;1.23;;;;;;;13.16;92.69;98905.47;5044706;28;20474;-56
2022/09/29 10:26:39;;;;;;;1.30;1.20;;;;;;;13.99;91.49;98909.13;5023011;28;20486;-56
2022/09/29 10:29:27;;;;;;;1.00;0.90;;;;;;;13.96;90.61;98909.31;5038045;28;20453;-56
2022/09/29 10:32:13;;;;;;;1.40;1.30;;;;;;;14.09;89.80;98910.22;5031958;28;20460;-56
2022/09/29 10:34:43;;;;;;;4.73;3.13;;;;;;;13.57;88.78;98915.41;5041838;28;20490;-56
2022/09/29 10:37:27;;;;;;;1.90;1.80;;;;;;;13.39;90.54;98919.22;5019980;28;21046;-56
2022/09/29 10:40:13;;;;;;;1.67;1.53;;;;;;;13.52;89.83;98915.69;5019976;28;20455;-56
2022/09/29 10:42:42;;;;;;;1.60;1.50;;;;;;;13.46;90.32;98916.06;5029925;28;20508;-57
2022/09/29 10:45:16;;;;;;;5.70;1.30;;;;;;;13.58;90.27;98917.13;5037417;28;20479;-57
2022/09/29 10:47:58;;;;;;;1.47;1.37;;;;;;;13.28;90.67;98906.53;5040167;28;20731;-56
2022/09/29 10:50:32;;;;;;;3.30;2.20;;;;;;;13.73;89.33;98912.63;5046393;28;20832;-57
2022/09/29 10:53:14;;;;;;;1.97;1.87;;;;;;;13.70;89.54;98902.97;5049142;28;20446;-57
2022/09/29 10:55:51;;;;;;;2.03;1.83;;;;;;;13.75;88.69;98911.56;5040662;28;20462;-57
2022/09/29 10:58:58;;;;;;;7.03;1.33;;;;;;;14.14;87.45;98915.28;5045465;28;20865;-56
2022/09/29 11:01:49;;;;;;;1.20;1.10;;;;;;;13.95;86.34;98907.59;5026639;28;20545;-57
2022/09/29 11:04:24;;;;;;;2.60;1.90;;;;;;;14.21;85.51;98905.91;5037361;28;20468;-58
2022/09/29 11:06:51;;;;;;;3.17;0.93;;;;;;;14.21;86.09;98906.75;5038919;28;20490;-58
2022/09/29 11:09:18;;;;;;;1.67;1.30;;;;;;;14.65;86.50;98902.97;5036800;28;20452;-57
2022/09/29 11:11:48;;;;;;;1.73;1.07;;;;;;;14.72;85.14;98904.28;5042127;28;20911;-57
2022/09/29 11:14:39;;;;;;;1.93;0.93;;;;;;;15.05;84.14;98900.25;5043685;28;21003;-57
2022/09/29 11:17:22;;;;;;;1.83;0.90;;;;;;;14.75;84.53;98901.41;5042709;28;20457;-58
2022/09/29 11:19:51;;;;;;;1.07;0.97;;;;;;;15.03;84.55;98913.75;5009602;28;20959;-52
2022/09/29 11:22:29;;;;;;;0.73;0.73;;;;;;;14.78;82.69;98908.34;5034004;28;20447;-51
2022/09/29 11:25:14;;;;;;;11.63;1.13;;;;;;;14.38;83.24;98911.00;5043367;28;20516;-55
2022/09/29 11:27:59;;;;;;;1.73;1.40;;;;;;;14.61;82.78;98914.00;5033639;28;21054;-51
2022/09/29 11:30:48;;;;;;;1.40;1.30;;;;;;;15.28;81.99;98912.03;5047455;28;20488;-51
2022/09/29 11:33:37;;;;;;;1.20;0.90;;;;;;;15.12;82.75;98914.94;5030035;28;20441;-56
2022/09/29 11:36:17;;;;;;;1.30;1.20;;;;;;;15.31;81.04;98914.50;5033182;28;20456;-58
2022/09/29 11:38:59;;;;;;;6.90;1.83;;;;;;;15.24;81.48;98913.22;5043742;28;20444;-55
2022/09/29 11:42:05;;;;;;;5.13;1.60;;;;;;;15.67;79.70;98914.63;5042404;28;20505;-55
2022/09/29 11:44:57;;;;;;;0.73;0.73;;;;;;;15.77;79.71;98914.81;5031468;28;20901;-55
2022/09/29 11:47:46;;;;;;;6.60;2.30;;;;;;;15.60;79.30;98915.16;5020016;28;20585;-55
2022/09/29 11:50:31;;;;;;;2.20;1.27;;;;;;;15.78;78.93;98911.16;5037590;28;20442;-55
2022/09/29 11:53:30;;;;;;;5.13;1.77;;;;;;;15.76;78.57;98913.13;5048716;28;20446;-55
2022/09/29 11:55:57;;;;;;;2.10;1.27;;;;;;;15.74;78.98;98914.16;5041876;28;20451;-53
2022/09/29 11:58:23;;;;;;;1.30;1.20;;;;;;;15.54;78.64;98918.25;5043913;28;20460;-53
2022/09/29 12:00:59;;;;;;;0.70;0.70;;;;;;;15.16;80.06;98911.06;5042096;28;20961;-55
2022/09/29 12:03:42;;;;;;;0.90;0.70;;;;;;;15.14;80.87;98913.00;5023225;28;20964;-53